NCAR-RAP Real-Time Weather Data

Output produced by METARs form (10 April 2020  07:28 UTC)
found at http://weather.rap.ucar.edu/surface/
 
KLBF 100653Z AUTO 12004KT 10SM CLR M04/M09 A3017 RMK AO2 SLP230 T10441094
KLBF 100553Z AUTO 14004KT 10SM CLR M04/M09 A3018 RMK AO2 SLP233 T10441094 10111 21044 401331044 51001
KLBF 100453Z AUTO 11005KT 10SM CLR M03/M09 A3018 RMK AO2 SLP234 T10281094
KLBF 100353Z AUTO 10003KT 10SM CLR M02/M09 A3019 RMK AO2 SLP238 T10171094
KLBF 100253Z AUTO 08006KT 10SM CLR 02/M10 A3017 RMK AO2 SLP231 T00171100 53015
KLBF 100153Z AUTO 08007KT 10SM CLR 04/M11 A3015 RMK AO2 SLP224 T00441111
KLBF 100053Z AUTO 05011KT 10SM CLR 08/M12 A3013 RMK AO2 SLP219 T00831117
KLBF 092353Z AUTO 04015G23KT 10SM CLR 11/M12 A3013 RMK AO2 SLP212 T01111122 10133 20111 56002
KLBF 092253Z AUTO 02011G20KT 10SM CLR 12/M14 A3013 RMK AO2 PK WND 03028/2157 SLP212 T01221139
KLBF 092153Z AUTO 03019G27KT 10SM CLR 13/M13 A3012 RMK AO2 PK WND 36029/2136 SLP210 T01281133
KLBF 092053Z AUTO 02017G30KT 10SM CLR 13/M09 A3013 RMK AO2 PK WND 03031/2016 SLP213 T01281089 58012
KLBF 091953Z AUTO 35014G28KT 10SM CLR 13/M06 A3015 RMK AO2 PK WND 35028/1944 SLP215 T01331061
KLBF 091853Z AUTO 01010G22KT 10SM CLR 13/M07 A3016 RMK AO2 SLP219 T01281067
KLBF 091753Z AUTO 35012G24KT 10SM CLR 12/M06 A3017 RMK AO2 SLP222 T01221061 10122 21039 58004
KLBF 091653Z AUTO 35014G19KT 10SM OVC080 09/M05 A3019 RMK AO2 SLP232 T00941050
KLBF 091553Z AUTO 33010KT 10SM OVC075 07/M03 A3019 RMK AO2 SLP234 T00721033
KLBF 091453Z AUTO 31010KT 10SM OVC075 06/M03 A3018 RMK AO2 SLP230 T00561028 51010
KLBF 091353Z AUTO 29005KT 10SM SCT070 02/M02 A3018 RMK AO2 SLP230 T00221022
KLBF 091253Z AUTO 30004KT 10SM CLR M03/M06 A3017 RMK AO2 SLP229 T10281056
KLBF 091153Z AUTO 31005KT 10SM CLR M02/M06 A3015 RMK AO2 SLP218 T10171056 10033 21044 53002
KLBF 091053Z AUTO 36006KT 10SM CLR M02/M06 A3012 RMK AO2 SLP207 T10171056
KLBF 090953Z AUTO 36004KT 10SM CLR M02/M06 A3012 RMK AO2 SLP204 T10171056
KLBF 090853Z AUTO 32005KT 10SM CLR M01/M06 A3015 RMK AO2 SLP213 T10061056 53007